Time;durP1;ratioP1;P1;durP2;ratioP2;P2;SDS_P1;SDS_P2;PMS_P1;PMS_P2;Temp;Humidity;BMP_temperature;BMP_pressure;BME280_temperature;BME280_humidity;BME280_pressure;Samples;Min_cycle;Max_cycle;Signal;HPM_P1;HPM_P2
2022/04/21 00:02:14;;;;;;;20.02;12.48;;;3.80;99.90;;;;;;5015888;28;20068;-67
2022/04/21 00:04:40;;;;;;;21.67;12.38;;;3.80;99.90;;;;;;5016668;28;20433;-66
2022/04/21 00:07:05;;;;;;;19.02;12.45;;;3.80;99.90;;;;;;5016590;28;20026;-66
2022/04/21 00:09:31;;;;;;;23.35;12.52;;;3.70;99.90;;;;;;5016234;28;20105;-66
2022/04/21 00:11:56;;;;;;;19.00;12.02;;;3.70;99.90;;;;;;5016523;28;20529;-66
2022/04/21 00:14:22;;;;;;;22.25;13.68;;;3.70;99.90;;;;;;5016288;28;20088;-66
2022/04/21 00:16:48;;;;;;;22.30;13.30;;;3.60;99.90;;;;;;5015547;28;20042;-66
2022/04/21 00:19:13;;;;;;;25.88;13.45;;;3.60;99.90;;;;;;5016325;28;20018;-66
2022/04/21 00:24:23;;;;;;;22.17;12.77;;;3.60;99.90;;;;;;5016197;28;20389;-66
2022/04/21 00:26:48;;;;;;;20.50;13.15;;;3.60;99.90;;;;;;5014497;28;20105;-67
2022/04/21 00:29:14;;;;;;;22.92;12.85;;;3.50;99.90;;;;;;5015722;28;20037;-67
2022/04/21 00:31:39;;;;;;;20.13;13.55;;;3.50;99.90;;;;;;5016043;28;20097;-67
2022/04/21 00:34:05;;;;;;;22.75;13.25;;;3.50;99.90;;;;;;5015237;28;20370;-67
2022/04/21 00:36:30;;;;;;;23.88;12.70;;;3.50;99.90;;;;;;5015946;28;20461;-67
2022/04/21 00:38:56;;;;;;;18.33;11.80;;;3.50;99.90;;;;;;5015716;28;20040;-67
2022/04/21 00:41:21;;;;;;;21.85;13.40;;;3.50;99.90;;;;;;5015971;28;20054;-67
2022/04/21 00:43:48;;;;;;;24.70;13.85;;;3.50;99.90;;;;;;5015084;28;20032;-67
2022/04/21 00:46:18;;;;;;;19.52;13.65;;;3.40;99.90;;;;;;5015587;28;20054;-67
2022/04/21 00:48:45;;;;;;;21.33;13.63;;;3.40;99.90;;;;;;5015905;28;20557;-67
2022/04/21 00:51:11;;;;;;;27.58;13.38;;;3.40;99.90;;;;;;5015144;28;20065;-67
2022/04/21 00:53:38;;;;;;;25.63;14.30;;;3.30;99.90;;;;;;5015282;28;20054;-66
2022/04/21 00:56:05;;;;;;;22.10;14.60;;;3.30;99.90;;;;;;5015377;28;20025;-68
2022/04/21 00:58:31;;;;;;;26.77;13.88;;;3.30;99.90;;;;;;5015378;28;20026;-68
2022/04/21 01:00:57;;;;;;;21.73;13.35;;;3.30;99.90;;;;;;5014823;28;20018;-69
2022/04/21 01:03:23;;;;;;;22.67;14.00;;;3.20;99.90;;;;;;5015787;28;20382;-69
2022/04/21 01:05:49;;;;;;;22.38;13.65;;;3.20;99.90;;;;;;5015372;28;20108;-69
2022/04/21 01:08:14;;;;;;;22.30;12.98;;;3.20;99.90;;;;;;5015461;28;20037;-68
2022/04/21 01:10:43;;;;;;;18.42;12.88;;;3.20;99.90;;;;;;5014575;28;20026;-69
2022/04/21 01:13:10;;;;;;;18.90;12.75;;;3.10;99.90;;;;;;5015113;28;20025;-69
2022/04/21 01:15:37;;;;;;;22.33;14.15;;;3.10;99.90;;;;;;5015357;28;20105;-69
2022/04/21 01:18:04;;;;;;;21.92;12.95;;;3.10;99.90;;;;;;5015311;28;20105;-69
2022/04/21 01:20:30;;;;;;;22.55;13.25;;;3.10;99.90;;;;;;5014432;28;20026;-69
2022/04/21 01:22:55;;;;;;;22.90;13.60;;;3.10;99.90;;;;;;5014998;28;20153;-68
2022/04/21 01:25:21;;;;;;;25.58;13.95;;;3.10;99.90;;;;;;5015165;28;20033;-68
2022/04/21 01:27:50;;;;;;;21.02;13.02;;;3.00;99.90;;;;;;5015203;28;20474;-68
2022/04/21 01:30:16;;;;;;;21.10;13.00;;;3.00;99.90;;;;;;5014759;28;20191;-68
2022/04/21 01:32:43;;;;;;;19.50;12.30;;;3.00;99.90;;;;;;5014260;28;20129;-69
2022/04/21 01:35:10;;;;;;;24.33;13.65;;;2.90;99.90;;;;;;5014716;28;20477;-69
2022/04/21 01:43:06;;;;;;;19.20;13.30;;;2.90;99.90;;;;;;5014924;28;20048;-69
2022/04/21 01:45:32;;;;;;;20.25;13.40;;;2.90;99.90;;;;;;5014245;28;20095;-68
2022/04/21 01:47:57;;;;;;;19.13;12.32;;;2.90;99.90;;;;;;5014785;28;20109;-68
2022/04/21 01:50:24;;;;;;;26.35;13.45;;;2.90;99.90;;;;;;5014349;28;20085;-68
2022/04/21 01:52:50;;;;;;;20.52;12.43;;;2.90;99.90;;;;;;5014440;28;20136;-68
2022/04/21 01:55:16;;;;;;;25.52;14.15;;;2.90;99.90;;;;;;5015076;28;20057;-69
2022/04/21 01:57:41;;;;;;;23.08;13.38;;;2.90;99.90;;;;;;5013713;28;20037;-69
2022/04/21 02:00:07;;;;;;;20.65;12.32;;;2.90;99.90;;;;;;5014438;28;20026;-69
2022/04/21 02:02:33;;;;;;;24.38;13.88;;;2.80;99.90;;;;;;5014805;28;20026;-69
2022/04/21 02:05:02;;;;;;;19.60;13.30;;;2.80;99.90;;;;;;5014244;28;20044;-69
2022/04/21 02:07:28;;;;;;;28.85;14.25;;;2.80;99.90;;;;;;5013811;28;20469;-69
2022/04/21 02:09:55;;;;;;;24.38;13.85;;;2.80;99.90;;;;;;5014227;28;20092;-69
2022/04/21 02:12:24;;;;;;;17.55;12.82;;;2.80;99.90;;;;;;5014367;28;20048;-69
2022/04/21 02:14:51;;;;;;;23.85;14.25;;;2.80;99.90;;;;;;5014042;28;20034;-69
2022/04/21 02:17:17;;;;;;;19.10;12.63;;;2.70;99.90;;;;;;5013401;28;20022;-69
2022/04/21 02:19:43;;;;;;;22.10;14.55;;;2.80;99.90;;;;;;5013948;28;20022;-69
2022/04/21 02:22:08;;;;;;;21.08;12.50;;;2.80;99.90;;;;;;5014195;28;20466;-69
2022/04/21 02:24:34;;;;;;;22.55;13.82;;;2.70;99.90;;;;;;5013426;28;20056;-69
2022/04/21 02:26:59;;;;;;;21.35;12.70;;;2.70;99.90;;;;;;5014017;28;20470;-69
2022/04/21 02:29:25;;;;;;;23.00;14.57;;;2.70;99.90;;;;;;5014094;28;20121;-68
2022/04/21 02:31:50;;;;;;;19.38;13.02;;;2.70;99.90;;;;;;5013790;28;20041;-69
2022/04/21 02:34:16;;;;;;;22.00;13.73;;;2.60;99.90;;;;;;5013231;28;20033;-68
2022/04/21 02:36:42;;;;;;;19.85;13.38;;;2.60;99.90;;;;;;5013932;28;20490;-68
2022/04/21 02:39:07;;;;;;;20.63;12.02;;;2.50;99.90;;;;;;5013936;28;20117;-68
2022/04/21 02:41:33;;;;;;;20.88;13.07;;;2.50;99.90;;;;;;5014588;28;20061;-68
2022/04/21 02:43:59;;;;;;;20.15;12.70;;;2.50;99.90;;;;;;5013332;28;20370;-68
2022/04/21 02:46:28;;;;;;;19.08;12.90;;;2.40;99.90;;;;;;5013795;28;20026;-68
2022/04/21 02:48:59;;;;;;;25.48;14.90;;;2.40;99.90;;;;;;5013552;28;20029;-68
2022/04/21 02:51:24;;;;;;;27.13;14.70;;;2.40;99.90;;;;;;5013436;28;20030;-68
2022/04/21 02:59:19;;;;;;;;;;;2.20;99.90;;;;;;5013280;28;20033;-69
2022/04/21 03:01:45;;;;;;;27.27;14.25;;;2.20;99.90;;;;;;5013568;28;19906;-69
2022/04/21 03:04:10;;;;;;;23.70;13.68;;;2.10;99.90;;;;;;5013551;28;20478;-69
2022/04/21 03:06:36;;;;;;;23.00;14.50;;;2.10;99.90;;;;;;5013101;28;20470;-69
2022/04/21 03:09:01;;;;;;;23.13;13.10;;;2.10;99.90;;;;;;5013382;28;20569;-69
2022/04/21 03:11:27;;;;;;;21.55;14.15;;;2.10;99.90;;;;;;5013373;28;20115;-69
2022/04/21 03:13:53;;;;;;;22.23;13.40;;;2.10;99.90;;;;;;5012904;28;20034;-68
2022/04/21 03:16:19;;;;;;;24.63;13.93;;;2.10;99.90;;;;;;5013317;28;20025;-68
2022/04/21 03:18:45;;;;;;;23.20;15.02;;;2.10;99.90;;;;;;5013495;28;20030;-68
2022/04/21 03:26:38;;;;;;;21.25;13.68;;;2.10;99.90;;;;;;5013311;28;20033;-68
2022/04/21 03:29:04;;;;;;;22.73;13.80;;;2.00;99.90;;;;;;5012627;28;20034;-69
2022/04/21 03:31:29;;;;;;;21.58;14.48;;;2.00;99.90;;;;;;5013388;28;20548;-69
2022/04/21 03:33:55;;;;;;;22.45;13.05;;;1.90;99.90;;;;;;5013387;28;20030;-68
2022/04/21 03:36:21;;;;;;;25.27;14.73;;;1.90;99.90;;;;;;5013233;28;20386;-69
2022/04/21 03:38:46;;;;;;;33.47;19.92;;;1.90;99.90;;;;;;5012591;28;20046;-68
2022/04/21 03:41:12;;;;;;;27.63;17.10;;;1.80;99.90;;;;;;5013143;28;20065;-68
2022/04/21 03:43:38;;;;;;;23.65;14.80;;;1.80;99.90;;;;;;5013139;28;20022;-68
2022/04/21 03:46:03;;;;;;;33.40;19.05;;;1.80;99.90;;;;;;5013115;28;20389;-68
2022/04/21 03:48:29;;;;;;;24.58;17.48;;;1.80;99.90;;;;;;5012513;28;20030;-69
2022/04/21 03:50:55;;;;;;;26.27;16.15;;;1.80;99.90;;;;;;5013063;28;20037;-68
2022/04/21 03:53:21;;;;;;;29.88;17.17;;;1.80;99.90;;;;;;5013415;28;20390;-69
2022/04/21 03:55:47;;;;;;;29.67;16.95;;;1.70;99.90;;;;;;5012919;28;20026;-68
2022/04/21 03:58:12;;;;;;;28.73;16.90;;;1.70;99.90;;;;;;5012863;28;20101;-68
2022/04/21 04:00:38;;;;;;;23.73;16.23;;;1.70;99.90;;;;;;5012653;28;20038;-68
2022/04/21 04:03:03;;;;;;;24.17;17.10;;;1.70;99.90;;;;;;5015018;28;20022;-69
2022/04/21 04:05:29;;;;;;;24.50;15.95;;;1.70;99.90;;;;;;5016567;28;20030;-69
2022/04/21 04:10:53;;;;;;;28.98;16.27;;;1.70;99.90;;;;;;5016425;28;20036;-69
2022/04/21 04:13:24;;;;;;;30.65;16.90;;;1.70;99.90;;;;;;5015764;28;20032;-69
2022/04/21 04:15:51;;;;;;;40.30;26.23;;;1.70;99.90;;;;;;5016380;28;20097;-69
2022/04/21 04:18:18;;;;;;;47.65;26.05;;;1.70;99.90;;;;;;5016393;28;20022;-69
2022/04/21 04:20:45;;;;;;;50.58;28.45;;;1.80;99.90;;;;;;5016234;28;20108;-69
2022/04/21 04:23:17;;;;;;;59.70;31.45;;;1.70;99.90;;;;;;5015792;28;20065;-68
2022/04/21 04:25:42;;;;;;;54.78;30.60;;;1.70;99.90;;;;;;5016236;28;20382;-69
2022/04/21 04:28:08;;;;;;;55.17;28.38;;;1.70;99.90;;;;;;5016240;28;20029;-69
2022/04/21 04:30:33;;;;;;;48.63;26.40;;;1.70;99.90;;;;;;5015337;28;20045;-68
2022/04/21 04:32:59;;;;;;;43.90;23.10;;;1.70;99.90;;;;;;5015883;28;20026;-68
2022/04/21 04:35:25;;;;;;;34.80;19.08;;;1.80;99.90;;;;;;5015959;28;20125;-68
2022/04/21 04:37:52;;;;;;;31.83;19.40;;;1.80;99.90;;;;;;5016278;28;20030;-68
2022/04/21 04:40:18;;;;;;;34.10;19.52;;;1.80;99.90;;;;;;5015094;28;20025;-68
2022/04/21 04:42:44;;;;;;;44.47;21.00;;;1.80;99.90;;;;;;5015722;28;20034;-68
2022/04/21 04:47:54;;;;;;;56.47;26.48;;;1.80;99.90;;;;;;5015674;28;20413;-68
2022/04/21 04:50:20;;;;;;;60.13;27.40;;;1.80;99.90;;;;;;5016507;28;20030;-68
2022/04/21 04:52:47;;;;;;;59.20;27.20;;;1.90;99.90;;;;;;5015551;28;20033;-68
2022/04/21 04:55:13;;;;;;;45.83;23.35;;;2.00;99.90;;;;;;5015728;28;20018;-69
2022/04/21 04:57:39;;;;;;;46.03;22.85;;;2.00;99.90;;;;;;5015348;28;20030;-68
2022/04/21 05:00:08;;;;;;;41.85;20.80;;;2.10;99.90;;;;;;5015420;28;20064;-69
2022/04/21 05:02:34;;;;;;;49.67;24.65;;;2.20;99.90;;;;;;5015701;28;20025;-69
2022/04/21 05:04:59;;;;;;;55.78;25.90;;;2.20;99.90;;;;;;5015615;28;20105;-69
2022/04/21 05:07:25;;;;;;;48.38;25.73;;;2.40;99.90;;;;;;5014268;28;20033;-68
2022/04/21 05:09:50;;;;;;;43.65;22.52;;;2.50;99.90;;;;;;5015304;28;20034;-69
2022/04/21 05:12:16;;;;;;;43.17;22.23;;;2.60;99.90;;;;;;5015175;28;20030;-68
2022/04/21 05:14:41;;;;;;;38.10;20.58;;;2.70;99.90;;;;;;5015477;28;20025;-68
2022/04/21 05:17:07;;;;;;;41.42;23.00;;;2.90;99.90;;;;;;5014684;28;20212;-68
2022/04/21 05:19:33;;;;;;;40.40;24.35;;;3.00;99.90;;;;;;5014967;28;20026;-68
2022/04/21 05:22:04;;;;;;;41.70;24.15;;;3.20;99.90;;;;;;5015213;28;20018;-68
2022/04/21 05:24:33;;;;;;;48.72;24.27;;;3.50;99.90;;;;;;5014708;28;20018;-68
2022/04/21 05:26:59;;;;;;;48.20;23.45;;;3.60;99.90;;;;;;5015139;28;20121;-68
2022/04/21 05:32:10;;;;;;;51.78;24.45;;;3.80;99.90;;;;;;4997659;28;20032;-70
2022/04/21 05:34:36;;;;;;;37.08;23.60;;;3.90;99.90;;;;;;4996579;28;20438;-71
2022/04/21 05:37:03;;;;;;;41.72;24.35;;;4.00;99.90;;;;;;4997390;28;20025;-72
2022/04/21 05:39:29;;;;;;;39.35;23.55;;;4.10;99.90;;;;;;4997312;28;20477;-71
2022/04/21 05:41:59;;;;;;;40.80;24.63;;;4.20;99.90;;;;;;4997701;28;20498;-70
2022/04/21 05:44:25;;;;;;;40.70;24.25;;;4.20;99.90;;;;;;4997470;28;20057;-70
2022/04/21 05:46:51;;;;;;;45.33;25.50;;;4.40;99.90;;;;;;4997412;28;20026;-70
2022/04/21 05:49:17;;;;;;;46.88;26.67;;;4.50;99.90;;;;;;4996862;28;20029;-71
2022/04/21 05:51:46;;;;;;;51.17;26.17;;;4.70;99.90;;;;;;4997417;28;20371;-71
2022/04/21 05:54:12;;;;;;;43.53;25.98;;;4.90;99.90;;;;;;4997367;28;20109;-70
2022/04/21 05:56:37;;;;;;;38.90;23.15;;;5.10;99.90;;;;;;4997285;28;20054;-70
2022/04/21 05:59:03;;;;;;;35.65;23.05;;;5.30;99.90;;;;;;4997438;28;20106;-71
2022/04/21 06:01:30;;;;;;;42.92;24.33;;;5.50;99.90;;;;;;4997188;28;20497;-71
2022/04/21 06:03:56;;;;;;;38.33;22.73;;;5.60;99.90;;;;;;4995413;28;20441;-71
2022/04/21 06:06:22;;;;;;;32.92;20.10;;;5.80;99.90;;;;;;4997238;28;20050;-71
2022/04/21 06:08:48;;;;;;;33.60;19.95;;;6.00;99.90;;;;;;4996807;28;20037;-71
2022/04/21 06:11:14;;;;;;;39.15;20.63;;;6.10;99.90;;;;;;4997000;28;20022;-71
2022/04/21 06:13:41;;;;;;;33.13;19.30;;;6.30;99.90;;;;;;4996089;28;20030;-72
2022/04/21 06:16:07;;;;;;;31.90;18.85;;;6.50;99.90;;;;;;4995946;28;20026;-71
2022/04/21 06:18:33;;;;;;;26.83;17.88;;;6.70;99.90;;;;;;4997687;28;20029;-71
2022/04/21 06:21:00;;;;;;;33.17;18.08;;;6.90;99.90;;;;;;4996823;28;20026;-71
2022/04/21 06:23:26;;;;;;;31.88;16.75;;;7.10;99.90;;;;;;4995759;28;20066;-71
2022/04/21 06:25:58;;;;;;;24.10;16.08;;;7.30;99.90;;;;;;4995544;28;20049;-71
2022/04/21 06:28:25;;;;;;;25.60;15.77;;;7.50;99.90;;;;;;4997050;28;20018;-71
2022/04/21 06:30:51;;;;;;;32.15;14.50;;;7.70;99.90;;;;;;4996930;28;20058;-71
2022/04/21 06:33:17;;;;;;;19.25;13.70;;;7.90;99.90;;;;;;4997197;28;20029;-70
2022/04/21 06:35:44;;;;;;;19.08;13.75;;;8.10;99.90;;;;;;4995477;28;20022;-71
2022/04/21 06:38:10;;;;;;;23.45;13.77;;;8.30;99.90;;;;;;4996586;28;20019;-71
2022/04/21 06:40:36;;;;;;;22.88;12.98;;;8.50;99.90;;;;;;4996289;28;20018;-71
2022/04/21 06:43:03;;;;;;;23.20;12.52;;;8.60;99.90;;;;;;4996271;28;20027;-71
2022/04/21 06:48:13;;;;;;;18.23;12.18;;;9.10;99.90;;;;;;4996776;28;20041;-71
2022/04/21 06:50:40;;;;;;;21.88;10.85;;;9.40;99.90;;;;;;4996253;28;20027;-71
2022/04/21 06:53:08;;;;;;;18.88;11.38;;;9.50;99.90;;;;;;4995735;28;20088;-70
2022/04/21 06:55:33;;;;;;;17.08;10.13;;;9.80;99.90;;;;;;4996366;28;20057;-69
2022/04/21 06:58:00;;;;;;;18.35;9.82;;;9.80;99.90;;;;;;4997904;28;20029;-70
2022/04/21 07:00:28;;;;;;;16.80;9.85;;;10.00;99.90;;;;;;4997174;28;20386;-70
2022/04/21 07:02:57;;;;;;;24.73;11.38;;;10.10;99.90;;;;;;4996568;28;20036;-70
2022/04/21 07:05:24;;;;;;;14.27;8.90;;;10.20;99.90;;;;;;4996004;28;20073;-70
2022/04/21 07:07:50;;;;;;;23.60;9.00;;;10.40;99.90;;;;;;4995611;28;20030;-69
2022/04/21 07:10:17;;;;;;;14.27;8.43;;;10.50;99.90;;;;;;4995644;28;20029;-71
2022/04/21 07:12:45;;;;;;;17.05;8.90;;;10.90;99.90;;;;;;4996250;28;20027;-70
2022/04/21 07:15:11;;;;;;;19.77;8.82;;;11.00;99.90;;;;;;4994393;28;20037;-70
2022/04/21 07:17:38;;;;;;;22.17;9.80;;;11.10;99.90;;;;;;4994078;28;20049;-70
2022/04/21 07:20:05;;;;;;;11.38;7.85;;;11.20;99.90;;;;;;4994196;28;20030;-70
2022/04/21 07:22:31;;;;;;;30.27;12.63;;;11.30;99.90;;;;;;4993963;28;20022;-70
2022/04/21 07:24:58;;;;;;;21.55;10.02;;;11.50;99.90;;;;;;4994088;28;20050;-70
2022/04/21 07:27:24;;;;;;;14.15;7.35;;;11.70;99.90;;;;;;4994060;28;20041;-70
2022/04/21 07:29:50;;;;;;;10.20;6.85;;;11.80;99.90;;;;;;4993977;28;20489;-71
2022/04/21 07:32:16;;;;;;;10.45;5.90;;;12.10;99.90;;;;;;4994277;28;20085;-72
2022/04/21 07:34:42;;;;;;;14.63;5.72;;;12.30;99.90;;;;;;4996845;28;20022;-71
2022/04/21 07:37:11;;;;;;;12.80;6.75;;;12.40;99.90;;;;;;4997692;28;20083;-71
2022/04/21 07:39:46;;;;;;;16.73;5.90;;;12.20;99.90;;;;;;4997863;28;20554;-71
2022/04/21 07:42:13;;;;;;;13.15;5.03;;;12.40;99.90;;;;;;4998675;28;20363;-70
2022/04/21 07:44:39;;;;;;;12.18;5.30;;;12.60;99.90;;;;;;4999222;28;20027;-70
2022/04/21 07:47:06;;;;;;;6.68;4.80;;;12.70;99.90;;;;;;4998502;28;20390;-70
2022/04/21 07:49:48;;;;;;;16.83;5.85;;;13.00;99.90;;;;;;4998016;28;20026;-70
2022/04/21 07:55:14;;;;;;;13.30;5.75;;;13.10;99.90;;;;;;4998478;28;20036;-72
2022/04/21 07:57:40;;;;;;;26.77;7.85;;;13.20;99.90;;;;;;4998696;28;20038;-72
2022/04/21 08:00:06;;;;;;;24.15;6.15;;;13.20;99.90;;;;;;4999747;28;20024;-70
2022/04/21 08:02:32;;;;;;;8.82;5.10;;;13.30;99.90;;;;;;4997212;28;20085;-71
2022/04/21 08:04:58;;;;;;;14.10;6.00;;;13.50;99.90;;;;;;4998186;28;20026;-71
2022/04/21 08:07:24;;;;;;;8.88;5.07;;;13.40;99.90;;;;;;4998214;28;20052;-71
2022/04/21 08:09:49;;;;;;;16.33;5.78;;;13.60;99.90;;;;;;4998225;28;20030;-71
2022/04/21 08:12:15;;;;;;;14.82;6.15;;;13.70;99.90;;;;;;4997913;28;20029;-71
2022/04/21 08:14:40;;;;;;;10.10;5.25;;;13.80;99.90;;;;;;4998693;28;20030;-71
2022/04/21 08:17:06;;;;;;;15.00;5.63;;;13.80;99.90;;;;;;4997832;28;20434;-71
2022/04/21 08:19:32;;;;;;;13.27;6.25;;;13.70;99.90;;;;;;4997153;28;20045;-71
2022/04/21 08:21:58;;;;;;;11.95;6.47;;;13.80;99.90;;;;;;4997350;28;20022;-71
2022/04/21 08:32:45;;;;;;;13.00;5.82;;;14.20;99.90;;;;;;4997206;28;19912;-71
2022/04/21 08:35:15;;;;;;;6.57;4.85;;;14.40;99.90;;;;;;4997290;28;20034;-71
2022/04/21 08:37:42;;;;;;;12.77;5.10;;;14.40;99.90;;;;;;4996876;28;20030;-71
2022/04/21 08:40:08;;;;;;;14.20;6.40;;;14.60;99.90;;;;;;4996135;28;20382;-71
2022/04/21 08:42:37;;;;;;;9.18;6.22;;;14.80;99.90;;;;;;4996641;28;20026;-71
2022/04/21 08:45:03;;;;;;;13.57;4.90;;;14.80;99.90;;;;;;4995493;28;20030;-71
2022/04/21 08:47:29;;;;;;;7.53;5.20;;;15.00;99.90;;;;;;4996168;28;20044;-71
2022/04/21 08:50:06;;;;;;;13.00;5.28;;;15.40;99.90;;;;;;4997010;28;20030;-70
2022/04/21 08:52:35;;;;;;;7.40;4.90;;;15.60;99.90;;;;;;4996431;28;20101;-71
2022/04/21 08:55:05;;;;;;;14.70;6.78;;;15.90;99.90;;;;;;4998098;28;20026;-71
2022/04/21 08:57:31;;;;;;;16.02;5.60;;;15.80;99.90;;;;;;5012881;28;20073;-71
2022/04/21 08:59:58;;;;;;;10.70;5.80;;;16.20;99.90;;;;;;4997487;28;20089;-71
2022/04/21 09:02:38;;;;;;;8.05;5.65;;;16.60;99.90;;;;;;4997171;28;20019;-71
2022/04/21 09:05:04;;;;;;;12.00;5.25;;;16.90;99.90;;;;;;4997173;28;20026;-71
2022/04/21 09:07:30;;;;;;;19.08;7.07;;;17.30;99.90;;;;;;4995920;28;20026;-70
2022/04/21 09:10:06;;;;;;;14.30;5.55;;;17.50;99.90;;;;;;4996263;28;20074;-73
2022/04/21 09:12:33;;;;;;;12.48;5.25;;;17.60;99.90;;;;;;4996823;28;20475;-71
2022/04/21 09:15:05;;;;;;;12.98;5.20;;;17.60;99.90;;;;;;4996312;28;20034;-71
2022/04/21 09:17:30;;;;;;;9.52;5.22;;;17.60;99.90;;;;;;4996612;28;20545;-70
2022/04/21 09:19:57;;;;;;;13.55;5.65;;;17.70;99.90;;;;;;4996085;28;20065;-71
2022/04/21 09:22:23;;;;;;;7.53;5.07;;;17.60;99.90;;;;;;4996315;28;20438;-71
2022/04/21 09:24:52;;;;;;;7.35;5.18;;;17.70;99.90;;;;;;4995964;28;20076;-71
2022/04/21 09:27:18;;;;;;;8.88;4.82;;;18.00;99.90;;;;;;4995900;28;20482;-71
2022/04/21 09:29:43;;;;;;;11.05;4.53;;;18.30;99.90;;;;;;4995323;28;20177;-71
2022/04/21 09:32:09;;;;;;;6.38;4.78;;;18.50;99.90;;;;;;4995630;28;20030;-71
2022/04/21 09:34:37;;;;;;;7.03;5.00;;;18.80;99.90;;;;;;4995798;28;20031;-71
2022/04/21 09:37:06;;;;;;;8.38;4.55;;;19.20;99.90;;;;;;4995678;28;20038;-71
2022/04/21 09:39:33;;;;;;;7.78;4.60;;;19.10;99.90;;;;;;4995062;28;20018;-71
2022/04/21 09:41:59;;;;;;;9.88;5.03;;;19.20;99.90;;;;;;4995832;28;20122;-71
2022/04/21 09:47:19;;;;;;;11.65;4.80;;;19.00;99.90;;;;;;4995486;28;20517;-71
2022/04/21 09:49:44;;;;;;;5.78;4.38;;;19.10;99.90;;;;;;4995093;28;20072;-71
2022/04/21 09:52:11;;;;;;;7.93;4.60;;;19.00;99.90;;;;;;4995430;28;20034;-71
2022/04/21 09:54:36;;;;;;;11.43;4.35;;;19.20;99.90;;;;;;4995281;28;20027;-71
2022/04/21 09:57:03;;;;;;;7.97;5.00;;;19.20;99.90;;;;;;4995881;28;20485;-71
2022/04/21 09:59:29;;;;;;;11.73;5.28;;;19.40;99.90;;;;;;4994533;28;20030;-71
2022/04/21 10:01:55;;;;;;;7.20;4.70;;;19.60;99.90;;;;;;4995533;28;20101;-71
2022/04/21 10:04:22;;;;;;;11.45;5.55;;;19.60;99.90;;;;;;4995151;28;20022;-71
2022/04/21 10:06:48;;;;;;;10.48;5.05;;;19.70;99.90;;;;;;4996050;28;20040;-71
2022/04/21 10:09:18;;;;;;;6.75;4.40;;;19.80;99.90;;;;;;4995616;28;20033;-71
2022/04/21 10:11:44;;;;;;;7.97;5.15;;;19.80;99.90;;;;;;4995763;28;20552;-71
2022/04/21 10:14:15;;;;;;;12.57;5.10;;;20.20;99.90;;;;;;4997880;28;20054;-71
2022/04/21 10:16:42;;;;;;;7.15;4.95;;;19.90;99.90;;;;;;4997438;28;20029;-71
2022/04/21 10:19:09;;;;;;;10.77;5.10;;;20.10;99.90;;;;;;4997840;28;20026;-71
2022/04/21 10:21:42;;;;;;;11.13;4.82;;;20.30;99.90;;;;;;4998297;28;20027;-71
2022/04/21 10:24:09;;;;;;;6.82;4.75;;;20.10;99.90;;;;;;4998151;28;20054;-71
2022/04/21 10:26:38;;;;;;;9.73;5.00;;;19.80;99.90;;;;;;4996963;28;20038;-71
2022/04/21 10:29:14;;;;;;;9.88;4.85;;;19.70;99.90;;;;;;4997816;28;20030;-71
2022/04/21 10:31:57;;;;;;;10.80;4.53;;;20.00;99.90;;;;;;4998768;28;20026;-71
2022/04/21 10:34:32;;;;;;;7.75;4.93;;;20.10;99.90;;;;;;4998936;28;20022;-71
2022/04/21 10:37:19;;;;;;;8.00;4.78;;;20.10;99.90;;;;;;4997999;28;20026;-71
2022/04/21 10:40:07;;;;;;;13.38;4.93;;;19.90;99.90;;;;;;4997858;28;20086;-71
2022/04/21 10:42:51;;;;;;;10.77;4.47;;;19.90;99.90;;;;;;4997817;28;20391;-71
2022/04/21 10:45:25;;;;;;;8.20;4.70;;;20.20;99.90;;;;;;4998905;28;20624;-71
2022/04/21 10:48:13;;;;;;;7.47;4.38;;;20.40;99.90;;;;;;4999225;28;20387;-72
2022/04/21 10:50:40;;;;;;;12.85;4.07;;;20.40;99.90;;;;;;4999304;28;20062;-71
2022/04/21 10:58:37;;;;;;;11.77;4.22;;;19.70;99.90;;;;;;4995624;28;20033;-71
2022/04/21 11:01:10;;;;;;;7.32;4.28;;;19.50;99.90;;;;;;4995845;28;20026;-71
2022/04/21 11:03:36;;;;;;;13.10;4.55;;;20.10;99.90;;;;;;4996330;28;20471;-71
2022/04/21 11:06:06;;;;;;;7.30;3.40;;;20.50;99.90;;;;;;4996641;28;20041;-71
2022/04/21 11:08:32;;;;;;;7.47;3.40;;;20.90;99.90;;;;;;4997438;28;20061;-71
2022/04/21 11:10:58;;;;;;;5.90;3.45;;;21.30;99.80;;;;;;4998518;28;20034;-71
2022/04/21 11:13:40;;;;;;;3.50;2.83;;;21.70;98.50;;;;;;5000964;28;20038;-71
2022/04/21 11:16:06;;;;;;;7.97;3.67;;;21.80;97.50;;;;;;5000753;28;20022;-71
2022/04/21 11:18:32;;;;;;;3.97;2.67;;;21.80;97.50;;;;;;5000593;28;20026;-71
2022/04/21 11:21:23;;;;;;;3.20;2.55;;;21.30;93.70;;;;;;5001382;28;20026;-71
2022/04/21 11:23:49;;;;;;;7.03;2.75;;;20.90;93.60;;;;;;5000880;28;20026;-71
2022/04/21 11:26:14;;;;;;;8.65;2.90;;;20.70;94.90;;;;;;5001277;28;20061;-71
2022/04/21 11:28:45;;;;;;;5.50;3.25;;;20.40;94.60;;;;;;5000667;28;20470;-71
2022/04/21 11:31:12;;;;;;;4.88;2.67;;;20.50;96.00;;;;;;4999267;28;20109;-70
2022/04/21 11:33:44;;;;;;;7.00;3.05;;;20.70;97.10;;;;;;4997510;28;20026;-70
2022/04/21 11:36:11;;;;;;;6.60;2.83;;;21.00;95.00;;;;;;4997805;28;20153;-70
2022/04/21 11:38:42;;;;;;;12.18;3.80;;;21.30;95.50;;;;;;4997017;28;20027;-70
2022/04/21 11:41:09;;;;;;;12.60;3.10;;;21.70;94.70;;;;;;4998405;28;20026;-70
2022/04/21 11:43:35;;;;;;;7.15;3.05;;;21.60;91.30;;;;;;4997534;28;20521;-70
2022/04/21 11:46:04;;;;;;;5.65;3.13;;;21.90;92.50;;;;;;4997467;28;20029;-70
2022/04/21 11:48:37;;;;;;;4.53;3.03;;;22.30;92.70;;;;;;4997318;28;20023;-70
2022/04/21 11:51:03;;;;;;;3.67;2.90;;;22.00;92.10;;;;;;4997158;28;20029;-71
2022/04/21 11:53:34;;;;;;;7.15;2.80;;;22.10;90.70;;;;;;4997576;28;20105;-71
2022/04/21 11:56:00;;;;;;;9.80;3.13;;;22.60;90.30;;;;;;4997383;28;20033;-71
2022/04/21 11:58:31;;;;;;;8.55;3.15;;;22.60;89.40;;;;;;4997122;28;20453;-71
2022/04/21 12:06:38;;;;;;;7.72;2.83;;;22.90;87.10;;;;;;4998058;28;20032;-71
2022/04/21 12:09:05;;;;;;;5.75;2.15;;;23.10;87.00;;;;;;4998164;28;20418;-71
2022/04/21 12:11:32;;;;;;;4.32;2.13;;;23.50;84.30;;;;;;4997300;28;20101;-71
2022/04/21 12:13:59;;;;;;;7.47;2.47;;;23.90;83.60;;;;;;4997038;28;20027;-71
2022/04/21 12:16:43;;;;;;;10.98;2.95;;;24.10;80.90;;;;;;4996340;28;20027;-71
2022/04/21 12:19:16;;;;;;;4.63;3.03;;;24.10;76.80;;;;;;4996849;28;20498;-71
2022/04/21 12:22:06;;;;;;;2.55;2.35;;;23.90;78.70;;;;;;4997136;28;20522;-71
2022/04/21 12:24:43;;;;;;;7.97;2.83;;;23.50;79.00;;;;;;4996429;28;20370;-70
2022/04/21 12:27:13;;;;;;;10.50;3.13;;;23.40;80.90;;;;;;4996948;28;20049;-71
2022/04/21 12:30:06;;;;;;;6.60;2.92;;;23.50;79.80;;;;;;4995985;28;20037;-71
2022/04/21 12:32:36;;;;;;;5.63;2.97;;;23.60;79.70;;;;;;4994844;28;20122;-71
2022/04/21 12:35:06;;;;;;;10.40;3.00;;;24.00;79.20;;;;;;4996451;28;20034;-71
2022/04/21 12:37:39;;;;;;;15.82;3.40;;;24.40;78.60;;;;;;4996748;28;20378;-71
2022/04/21 12:40:08;;;;;;;3.55;2.55;;;24.40;77.70;;;;;;4996579;28;20077;-69
2022/04/21 12:42:33;;;;;;;15.70;3.03;;;24.60;77.10;;;;;;4996044;28;20030;-71
2022/04/21 12:44:59;;;;;;;7.00;2.55;;;24.60;73.80;;;;;;4996638;28;20048;-71
2022/04/21 12:47:25;;;;;;;4.55;2.70;;;24.20;71.70;;;;;;4996505;28;20467;-71
2022/04/21 12:50:03;;;;;;;5.93;2.72;;;23.80;74.70;;;;;;4996417;28;20109;-70
2022/04/21 12:52:45;;;;;;;3.97;2.70;;;23.80;76.40;;;;;;4995859;28;20026;-70
2022/04/21 12:55:21;;;;;;;6.90;2.60;;;23.80;73.60;;;;;;4996583;28;20034;-71
2022/04/21 12:58:07;;;;;;;9.90;2.30;;;23.80;75.00;;;;;;4996122;28;20027;-71
2022/04/21 13:00:38;;;;;;;4.63;1.92;;;24.60;74.30;;;;;;4996188;28;20019;-70
2022/04/21 13:03:04;;;;;;;8.23;1.85;;;25.20;71.10;;;;;;4995712;28;20018;-71
2022/04/21 13:05:30;;;;;;;3.85;2.30;;;25.60;72.10;;;;;;4995991;28;20033;-71
2022/04/21 13:07:57;;;;;;;19.45;2.60;;;25.80;70.50;;;;;;4996161;28;20026;-71
2022/04/21 13:10:23;;;;;;;12.43;2.45;;;25.70;69.30;;;;;;4995855;28;20022;-71
2022/04/21 13:12:49;;;;;;;11.15;2.08;;;25.50;69.50;;;;;;4995417;28;20081;-71
2022/04/21 13:15:15;;;;;;;11.98;2.20;;;25.60;69.30;;;;;;4996092;28;20030;-71
2022/04/21 13:17:40;;;;;;;9.65;2.00;;;25.20;66.80;;;;;;4995890;28;20040;-70
2022/04/21 13:20:07;;;;;;;11.00;1.80;;;24.80;64.80;;;;;;4995928;28;20429;-70
2022/04/21 13:22:33;;;;;;;6.20;2.10;;;24.50;68.80;;;;;;4995667;28;20367;-70
2022/04/21 13:24:59;;;;;;;3.72;1.95;;;24.80;67.80;;;;;;4994355;28;20025;-71
2022/04/21 13:27:26;;;;;;;16.15;2.88;;;24.70;67.80;;;;;;4995117;28;20109;-69
2022/04/21 13:29:53;;;;;;;15.98;2.25;;;24.90;68.40;;;;;;4995581;28;20038;-69
2022/04/21 13:35:04;;;;;;;10.32;2.75;;;24.10;66.70;;;;;;4995611;28;20399;-71
2022/04/21 13:37:30;;;;;;;4.93;2.03;;;24.40;71.20;;;;;;4995859;28;20045;-70
2022/04/21 13:39:56;;;;;;;11.77;3.38;;;24.60;67.80;;;;;;4994161;28;20518;-71
2022/04/21 13:42:21;;;;;;;15.75;1.88;;;24.70;67.90;;;;;;4995387;28;20023;-70